createdAt,value
2023-03-13T00:00:32.362Z,93.30
2023-03-13T00:01:32.354Z,93.30
2023-03-13T00:02:32.374Z,93.09
2023-03-13T00:03:32.310Z,93.30
2023-03-13T00:04:32.369Z,93.30
2023-03-13T00:05:32.321Z,92.99
2023-03-13T00:06:32.295Z,93.30
2023-03-13T00:07:32.264Z,93.19
2023-03-13T00:08:32.247Z,92.68
2023-03-13T00:09:32.257Z,92.99
2023-03-13T00:10:32.247Z,92.88
2023-03-13T00:11:32.223Z,93.19
2023-03-13T00:12:32.208Z,92.78
2023-03-13T00:13:32.236Z,92.63
2023-03-13T00:14:32.212Z,92.68
2023-03-13T00:15:32.152Z,92.53
2023-03-13T00:16:32.246Z,92.43
2023-03-13T00:17:32.167Z,92.02
2023-03-13T00:18:32.164Z,92.22
2023-03-13T00:19:32.172Z,91.60
2023-03-13T00:20:32.138Z,92.02
2023-03-13T00:21:32.121Z,92.02
2023-03-13T00:22:32.109Z,91.81
2023-03-13T00:23:32.157Z,91.87
2023-03-13T00:24:32.075Z,90.94
2023-03-13T00:25:32.098Z,91.36
2023-03-13T00:26:32.097Z,91.25
2023-03-13T00:27:32.048Z,91.15
2023-03-13T00:28:32.826Z,91.21
2023-03-13T00:29:33.070Z,91.21
2023-03-13T00:30:32.066Z,90.39
2023-03-13T00:31:32.136Z,90.59
2023-03-13T00:32:32.078Z,90.59
2023-03-13T00:33:31.970Z,90.80
2023-03-13T00:34:31.991Z,91.00
2023-03-13T00:35:32.028Z,90.90
2023-03-13T00:36:31.978Z,90.08
2023-03-13T00:37:31.958Z,89.67
2023-03-13T00:38:31.952Z,90.24
2023-03-13T00:39:31.949Z,89.97
2023-03-13T00:40:31.939Z,89.62
2023-03-13T00:41:31.939Z,89.01
2023-03-13T00:42:31.913Z,89.83
2023-03-13T00:43:31.902Z,89.62
2023-03-13T00:44:31.885Z,89.73
2023-03-13T00:45:31.901Z,89.42
2023-03-13T00:46:31.998Z,89.52
2023-03-13T00:47:31.820Z,89.62
2023-03-13T00:48:31.860Z,89.94
2023-03-13T00:49:31.845Z,89.11
2023-03-13T00:50:31.822Z,88.80
2023-03-13T00:51:31.840Z,88.59
2023-03-13T00:52:31.817Z,88.59
2023-03-13T00:53:31.763Z,88.76
2023-03-13T00:54:31.769Z,89.07
2023-03-13T00:55:31.789Z,88.96
2023-03-13T00:56:31.745Z,89.07
2023-03-13T00:57:31.747Z,88.29
2023-03-13T00:58:31.768Z,88.14
2023-03-13T00:59:32.741Z,88.24
2023-03-13T01:00:31.696Z,88.14
2023-03-13T01:01:31.739Z,88.24
2023-03-13T01:02:31.740Z,88.14
2023-03-13T01:03:31.661Z,88.04
2023-03-13T01:04:31.684Z,87.84
2023-03-13T01:05:31.653Z,88.04
2023-03-13T01:06:31.644Z,88.24
2023-03-13T01:07:31.646Z,88.24
2023-03-13T01:08:31.642Z,88.04
2023-03-13T01:09:31.600Z,88.24
2023-03-13T01:10:31.601Z,88.35
2023-03-13T01:11:31.611Z,88.14
2023-03-13T01:12:31.593Z,88.56
2023-03-13T01:13:31.537Z,88.86
2023-03-13T01:14:32.562Z,88.96
2023-03-13T01:15:31.602Z,89.07
2023-03-13T01:16:31.535Z,88.96
2023-03-13T01:17:31.514Z,88.96
2023-03-13T01:18:31.518Z,88.76
2023-03-13T01:19:31.524Z,88.66
2023-03-13T01:20:31.495Z,89.07
2023-03-13T01:21:31.497Z,88.96
2023-03-13T01:22:31.487Z,89.07
2023-03-13T01:23:31.457Z,88.66
2023-03-13T01:24:31.454Z,88.20
2023-03-13T01:25:31.460Z,88.31
2023-03-13T01:26:31.432Z,88.96
2023-03-13T01:27:31.419Z,88.86
2023-03-13T01:28:31.427Z,88.56
2023-03-13T01:29:31.394Z,88.56
2023-03-13T01:30:31.400Z,88.66
2023-03-13T01:31:31.523Z,88.56
2023-03-13T01:32:31.425Z,88.56
2023-03-13T01:33:31.332Z,88.66
2023-03-13T01:34:32.335Z,88.56
2023-03-13T01:35:31.397Z,88.66
2023-03-13T01:36:31.334Z,88.66
2023-03-13T01:37:31.346Z,88.56
2023-03-13T01:38:31.295Z,88.66
2023-03-13T01:39:31.288Z,89.38
2023-03-13T01:40:31.265Z,89.38
2023-03-13T01:41:31.272Z,89.17
2023-03-13T01:42:31.269Z,89.17
2023-03-13T01:43:31.232Z,89.58
2023-03-13T01:44:31.225Z,89.48
2023-03-13T01:45:31.233Z,89.79
2023-03-13T01:46:31.269Z,89.48
2023-03-13T01:47:31.186Z,90.30
2023-03-13T01:48:31.205Z,90.09
2023-03-13T01:49:31.206Z,90.20
2023-03-13T01:50:31.165Z,90.20
2023-03-13T01:51:31.131Z,90.36
2023-03-13T01:52:31.152Z,89.69
2023-03-13T01:53:31.118Z,89.48
2023-03-13T01:54:31.149Z,89.48
2023-03-13T01:55:31.118Z,89.44
2023-03-13T01:56:31.101Z,89.64
2023-03-13T01:57:31.094Z,90.09
2023-03-13T01:58:31.070Z,89.69
2023-03-13T01:59:31.110Z,90.20
2023-03-13T02:00:31.045Z,90.41
2023-03-13T02:01:31.105Z,90.09
2023-03-13T02:02:31.114Z,89.44
2023-03-13T02:03:31.019Z,89.75
2023-03-13T02:04:31.031Z,89.79
2023-03-13T02:05:31.024Z,88.92
2023-03-13T02:06:30.994Z,89.44
2023-03-13T02:07:30.972Z,89.38
2023-03-13T02:08:30.996Z,90.30
2023-03-13T02:09:30.953Z,90.30
2023-03-13T02:10:30.961Z,90.16
2023-03-13T02:11:30.955Z,90.20
2023-03-13T02:12:30.930Z,89.34
2023-03-13T02:13:30.909Z,89.79
2023-03-13T02:14:30.938Z,89.89
2023-03-13T02:15:30.927Z,89.58
2023-03-13T02:16:30.934Z,90.09
2023-03-13T02:17:30.885Z,90.26
2023-03-13T02:18:30.877Z,90.51
2023-03-13T02:19:30.864Z,89.69
2023-03-13T02:20:30.876Z,89.58
2023-03-13T02:21:30.814Z,89.79
2023-03-13T02:22:30.823Z,90.51
2023-03-13T02:23:30.830Z,90.00
2023-03-13T02:24:30.788Z,90.00
2023-03-13T02:25:30.815Z,90.20
2023-03-13T02:26:30.777Z,89.89
2023-03-13T02:27:30.754Z,90.20
2023-03-13T02:28:30.746Z,90.20
2023-03-13T02:29:30.776Z,90.00
2023-03-13T02:30:30.778Z,90.09
2023-03-13T02:31:30.760Z,90.00
2023-03-13T02:32:30.821Z,90.16
2023-03-13T02:33:30.683Z,90.36
2023-03-13T02:34:30.684Z,90.30
2023-03-13T02:35:30.719Z,90.92
2023-03-13T02:36:30.687Z,91.02
2023-03-13T02:37:30.641Z,90.92
2023-03-13T02:38:30.641Z,91.02
2023-03-13T02:39:30.670Z,91.02
2023-03-13T02:40:30.605Z,90.67
2023-03-13T02:41:30.647Z,90.57
2023-03-13T02:42:30.597Z,90.26
2023-03-13T02:43:30.626Z,90.57
2023-03-13T02:44:30.571Z,90.30
2023-03-13T02:45:30.587Z,90.51
2023-03-13T02:46:30.624Z,90.92
2023-03-13T02:47:30.533Z,90.81
2023-03-13T02:48:30.535Z,90.61
2023-03-13T02:49:30.563Z,90.57
2023-03-13T02:50:30.535Z,90.92
2023-03-13T02:51:30.535Z,90.72
2023-03-13T02:52:30.508Z,90.81
2023-03-13T02:53:30.491Z,90.81
2023-03-13T02:54:30.492Z,91.19
2023-03-13T02:55:30.490Z,91.33
2023-03-13T02:56:30.454Z,91.23
2023-03-13T02:57:30.489Z,91.23
2023-03-13T02:58:33.578Z,90.72
2023-03-13T02:59:31.432Z,90.72
2023-03-13T03:00:30.452Z,90.16
2023-03-13T03:01:30.440Z,90.36
2023-03-13T03:02:30.399Z,90.57
2023-03-13T03:03:30.432Z,90.78
2023-03-13T03:04:30.384Z,90.26
2023-03-13T03:05:30.336Z,90.06
2023-03-13T03:06:31.380Z,90.26
2023-03-13T03:07:30.359Z,89.95
2023-03-13T03:08:30.334Z,90.67
2023-03-13T03:09:30.319Z,90.78
2023-03-13T03:10:31.308Z,90.67
2023-03-13T03:11:30.327Z,90.78
2023-03-13T03:12:30.320Z,90.57
2023-03-13T03:13:30.294Z,90.57
2023-03-13T03:14:30.268Z,90.98
2023-03-13T03:15:30.280Z,90.57
2023-03-13T03:16:30.275Z,90.47
2023-03-13T03:17:30.250Z,90.47
2023-03-13T03:18:30.229Z,90.36
2023-03-13T03:19:30.204Z,90.47
2023-03-13T03:20:30.195Z,90.63
2023-03-13T03:21:30.231Z,90.57
2023-03-13T03:22:30.196Z,90.67
2023-03-13T03:23:30.140Z,90.63
2023-03-13T03:24:30.167Z,90.67
2023-03-13T03:25:30.168Z,90.57
2023-03-13T03:26:30.131Z,90.53
2023-03-13T03:27:30.133Z,90.83
2023-03-13T03:28:30.122Z,90.53
2023-03-13T03:29:30.086Z,90.73
2023-03-13T03:30:30.089Z,91.08
2023-03-13T03:31:30.154Z,90.63
2023-03-13T03:32:30.170Z,90.78
2023-03-13T03:33:30.048Z,90.83
2023-03-13T03:34:30.056Z,90.63
2023-03-13T03:35:30.172Z,90.38
2023-03-13T03:36:30.002Z,89.81
2023-03-13T03:37:30.027Z,90.01
2023-03-13T03:38:30.019Z,90.12
2023-03-13T03:39:29.999Z,91.10
2023-03-13T03:40:29.973Z,91.35
2023-03-13T03:41:29.989Z,90.53
2023-03-13T03:42:29.965Z,91.14
2023-03-13T03:43:29.950Z,90.08
2023-03-13T03:44:29.965Z,90.28
2023-03-13T03:45:29.967Z,90.28
2023-03-13T03:46:29.909Z,90.28
2023-03-13T03:47:30.448Z,90.38
2023-03-13T03:48:29.904Z,91.20
2023-03-13T03:49:29.890Z,91.10
2023-03-13T03:50:29.889Z,90.89
2023-03-13T03:51:29.874Z,91.31
2023-03-13T03:52:29.849Z,91.10
2023-03-13T03:53:29.819Z,91.20
2023-03-13T03:54:29.845Z,91.51
2023-03-13T03:55:29.854Z,91.41
2023-03-13T03:56:29.805Z,91.41
2023-03-13T03:57:29.775Z,91.72
2023-03-13T03:58:29.796Z,92.03
2023-03-13T03:59:29.789Z,92.23
2023-03-13T04:00:29.744Z,92.33
2023-03-13T04:01:29.773Z,92.64
2023-03-13T04:02:29.789Z,92.54
2023-03-13T04:03:29.744Z,93.20
2023-03-13T04:04:29.731Z,93.20
2023-03-13T04:05:29.735Z,93.71
2023-03-13T04:06:29.710Z,93.51
2023-03-13T04:07:29.669Z,93.92
2023-03-13T04:08:29.702Z,93.92
2023-03-13T04:09:31.923Z,94.33
2023-03-13T04:10:30.650Z,94.64
2023-03-13T04:11:29.676Z,95.81
2023-03-13T04:12:29.662Z,96.12
2023-03-13T04:13:29.613Z,96.53
2023-03-13T04:14:29.618Z,96.84
2023-03-13T04:15:29.661Z,97.56
2023-03-13T04:16:29.601Z,97.25
2023-03-13T04:17:29.612Z,98.02
2023-03-13T04:18:29.597Z,98.43
2023-03-13T04:19:29.551Z,98.74
2023-03-13T04:20:29.550Z,99.05
2023-03-13T04:21:30.568Z,99.56
2023-03-13T04:22:29.550Z,99.99
2023-03-13T04:23:29.553Z,99.87
2023-03-13T04:24:29.506Z,99.99
2023-03-13T04:25:29.507Z,99.99
2023-03-13T04:26:29.526Z,99.99
2023-03-13T04:27:29.481Z,99.99
2023-03-13T04:28:33.902Z,99.99
2023-03-13T04:29:29.480Z,99.99
2023-03-13T04:30:29.542Z,99.99
2023-03-13T04:31:29.447Z,99.99
2023-03-13T04:32:29.503Z,99.99
2023-03-13T04:33:29.398Z,99.99
2023-03-13T04:34:29.400Z,99.99
2023-03-13T04:35:29.494Z,99.99
2023-03-13T04:36:29.371Z,99.99
2023-03-13T04:37:29.366Z,99.99
2023-03-13T04:38:29.412Z,99.99
2023-03-13T04:39:30.940Z,99.99
2023-03-13T04:40:30.330Z,99.99
2023-03-13T04:41:29.356Z,99.99
2023-03-13T04:42:29.328Z,99.99
2023-03-13T04:43:29.275Z,99.99
2023-03-13T04:44:29.313Z,99.99
2023-03-13T04:45:29.289Z,99.99
2023-03-13T04:46:29.291Z,99.99
2023-03-13T04:47:29.281Z,99.99
2023-03-13T04:48:29.252Z,99.99
2023-03-13T04:49:29.213Z,99.99
2023-03-13T04:50:29.234Z,99.99
2023-03-13T04:51:29.219Z,99.99
2023-03-13T04:52:29.203Z,99.99
2023-03-13T04:53:29.180Z,99.99
2023-03-13T04:54:29.201Z,99.99
2023-03-13T04:55:29.182Z,99.99
2023-03-13T04:56:42.059Z,99.99
2023-03-13T04:57:31.170Z,99.99
2023-03-13T04:58:29.126Z,99.99
2023-03-13T04:59:29.133Z,99.99
2023-03-13T05:00:29.145Z,99.99
2023-03-13T05:01:29.101Z,99.99
2023-03-13T05:02:29.094Z,99.99
2023-03-13T05:03:29.107Z,99.99
2023-03-13T05:04:29.054Z,99.99
2023-03-13T05:05:29.099Z,99.99
2023-03-13T05:06:29.047Z,99.99
2023-03-13T05:07:29.015Z,99.99
2023-03-13T05:08:29.018Z,99.99
2023-03-13T05:09:29.026Z,99.99
2023-03-13T05:10:29.017Z,99.99
2023-03-13T05:11:28.970Z,99.99
2023-03-13T05:12:28.983Z,99.99
2023-03-13T05:13:28.971Z,99.99
2023-03-13T05:14:28.949Z,99.99
2023-03-13T05:15:28.969Z,99.99
2023-03-13T05:16:28.939Z,99.99
2023-03-13T05:17:28.893Z,99.99
2023-03-13T05:18:28.911Z,99.99
2023-03-13T05:19:28.922Z,99.99
2023-03-13T05:20:28.883Z,99.99
2023-03-13T05:21:28.874Z,99.99
2023-03-13T05:22:28.867Z,99.99
2023-03-13T05:23:28.856Z,99.99
2023-03-13T05:24:28.828Z,99.99
2023-03-13T05:25:28.858Z,99.99
2023-03-13T05:26:28.808Z,99.99
2023-03-13T05:27:28.816Z,99.99
2023-03-13T05:28:28.826Z,99.99
2023-03-13T05:29:28.798Z,99.99
2023-03-13T05:30:28.783Z,99.99
2023-03-13T05:31:28.789Z,99.99
2023-03-13T05:32:28.801Z,99.93
2023-03-13T05:33:28.770Z,99.99
2023-03-13T05:34:28.759Z,99.93
2023-03-13T05:35:28.718Z,99.99
2023-03-13T05:36:28.729Z,99.98
2023-03-13T05:37:28.677Z,99.99
2023-03-13T05:38:28.670Z,99.63
2023-03-13T05:39:28.683Z,99.83
2023-03-13T05:40:28.678Z,99.52
2023-03-13T05:41:28.649Z,99.63
2023-03-13T05:42:28.667Z,99.63
2023-03-13T05:43:28.624Z,99.83
2023-03-13T05:44:28.605Z,99.99
2023-03-13T05:45:28.613Z,99.67
2023-03-13T05:46:28.604Z,99.77
2023-03-13T05:47:28.584Z,99.83
2023-03-13T05:48:28.562Z,99.99
2023-03-13T05:49:28.557Z,99.83
2023-03-13T05:50:28.549Z,99.79
2023-03-13T05:51:28.525Z,99.93
2023-03-13T05:52:28.532Z,99.38
2023-03-13T05:53:28.491Z,99.89
2023-03-13T05:54:28.499Z,99.79
2023-03-13T05:55:28.503Z,99.68
2023-03-13T05:56:28.477Z,99.89
2023-03-13T05:57:28.477Z,99.58
2023-03-13T05:58:28.444Z,99.99
2023-03-13T05:59:28.460Z,99.99
2023-03-13T06:00:28.464Z,99.99
2023-03-13T06:01:28.399Z,99.79
2023-03-13T06:02:28.395Z,99.68
2023-03-13T06:03:28.533Z,99.99
2023-03-13T06:04:28.519Z,99.99
2023-03-13T06:05:28.374Z,99.99
2023-03-13T06:06:28.359Z,99.99
2023-03-13T06:07:28.390Z,99.89
2023-03-13T06:08:28.337Z,99.99
2023-03-13T06:09:28.348Z,99.99
2023-03-13T06:10:28.349Z,99.99
2023-03-13T06:11:28.288Z,99.99
2023-03-13T06:12:28.280Z,99.99
2023-03-13T06:13:28.299Z,99.99
2023-03-13T06:14:28.301Z,99.99
2023-03-13T06:15:28.234Z,99.99
2023-03-13T06:16:28.395Z,99.99
2023-03-13T06:17:28.213Z,99.99
2023-03-13T06:18:28.224Z,99.99
2023-03-13T06:19:28.239Z,99.99
2023-03-13T06:20:28.204Z,99.99
2023-03-13T06:21:28.179Z,99.99
2023-03-13T06:22:28.158Z,99.99
2023-03-13T06:23:28.213Z,99.99
2023-03-13T06:24:28.131Z,99.99
2023-03-13T06:25:28.145Z,99.99
2023-03-13T06:26:28.172Z,99.99
2023-03-13T06:27:28.111Z,99.99
2023-03-13T06:28:28.110Z,99.99
2023-03-13T06:29:28.129Z,99.99
2023-03-13T06:30:28.113Z,99.99
2023-03-13T06:31:28.084Z,99.99
2023-03-13T06:32:28.230Z,99.99
2023-03-13T06:33:28.121Z,99.99
2023-03-13T06:34:28.052Z,99.99
2023-03-13T06:35:28.029Z,99.99
2023-03-13T06:36:28.020Z,99.99
2023-03-13T06:37:28.024Z,99.99
2023-03-13T06:38:28.007Z,99.99
2023-03-13T06:39:27.976Z,99.99
2023-03-13T06:40:27.997Z,99.99
2023-03-13T06:41:27.958Z,99.99
2023-03-13T06:42:27.951Z,99.99
2023-03-13T06:43:27.961Z,99.99
2023-03-13T06:44:27.951Z,99.99
2023-03-13T06:45:27.909Z,99.99
2023-03-13T06:46:27.940Z,99.99
2023-03-13T06:47:27.929Z,99.99
2023-03-13T06:48:27.877Z,99.99
2023-03-13T06:49:27.877Z,99.99
2023-03-13T06:50:27.863Z,99.99
2023-03-13T06:51:27.837Z,99.99
2023-03-13T06:52:37.759Z,99.99
2023-03-13T06:53:29.871Z,99.99
2023-03-13T06:54:27.826Z,99.99
2023-03-13T06:55:27.778Z,99.99
2023-03-13T06:56:27.826Z,99.99
2023-03-13T06:57:27.756Z,99.99
2023-03-13T06:58:32.480Z,99.99
2023-03-13T06:59:28.773Z,99.99
2023-03-13T07:00:27.737Z,99.99
2023-03-13T07:01:27.781Z,99.99
2023-03-13T07:02:27.710Z,99.99
2023-03-13T07:03:27.729Z,99.99
2023-03-13T07:04:27.775Z,99.99
2023-03-13T07:05:27.693Z,99.99
2023-03-13T07:06:27.686Z,99.99
2023-03-13T07:07:32.003Z,99.99
2023-03-13T07:08:28.681Z,99.99
2023-03-13T07:09:27.664Z,99.99
2023-03-13T07:10:27.647Z,99.99
2023-03-13T07:11:27.606Z,99.79
2023-03-13T07:12:27.619Z,99.99
2023-03-13T07:13:27.597Z,99.99
2023-03-13T07:14:27.587Z,99.99
2023-03-13T07:15:27.584Z,99.99
2023-03-13T07:16:27.656Z,99.99
2023-03-13T07:17:27.579Z,99.99
2023-03-13T07:18:27.531Z,99.99
2023-03-13T07:19:27.559Z,99.54
2023-03-13T07:20:27.544Z,99.95
2023-03-13T07:21:27.520Z,99.99
2023-03-13T07:22:27.492Z,99.65
2023-03-13T07:23:27.481Z,99.99
2023-03-13T07:24:27.523Z,99.99
2023-03-13T07:25:27.490Z,99.99
2023-03-13T07:26:27.473Z,99.99
2023-03-13T07:27:27.541Z,99.99
2023-03-13T07:28:27.433Z,99.99
2023-03-13T07:29:27.387Z,99.99
2023-03-13T07:30:27.405Z,99.99
2023-03-13T07:31:27.428Z,99.99
2023-03-13T07:32:27.441Z,99.99
2023-03-13T07:33:27.356Z,99.99
2023-03-13T07:34:27.354Z,99.99
2023-03-13T07:35:28.355Z,99.99
2023-03-13T07:36:27.363Z,99.99
2023-03-13T07:37:27.305Z,99.99
2023-03-13T07:38:27.304Z,99.99
2023-03-13T07:39:27.323Z,99.99
2023-03-13T07:40:27.335Z,99.99
2023-03-13T07:41:27.268Z,99.99
2023-03-13T07:42:27.255Z,99.99
2023-03-13T07:43:27.273Z,99.99
2023-03-13T07:44:27.262Z,99.99
2023-03-13T07:45:27.361Z,99.99
2023-03-13T07:46:27.224Z,99.99
2023-03-13T07:47:27.194Z,99.99
2023-03-13T07:48:27.186Z,99.99
2023-03-13T07:49:27.199Z,99.99
2023-03-13T07:50:27.207Z,99.99
2023-03-13T07:51:42.168Z,99.99
2023-03-13T07:52:29.197Z,99.99
2023-03-13T07:53:27.194Z,99.99
2023-03-13T07:54:27.126Z,99.99
2023-03-13T07:55:27.122Z,99.99
2023-03-13T07:56:27.122Z,99.99
2023-03-13T07:57:27.076Z,99.99
2023-03-13T07:58:27.098Z,99.99
2023-03-13T07:59:27.114Z,99.99
2023-03-13T08:00:27.152Z,99.99
2023-03-13T08:01:30.367Z,99.99
2023-03-13T08:02:28.154Z,99.99
2023-03-13T08:03:27.102Z,99.99
2023-03-13T08:04:27.041Z,99.99
2023-03-13T08:05:27.044Z,99.99
2023-03-13T08:06:27.009Z,99.99
2023-03-13T08:07:26.973Z,99.99
2023-03-13T08:08:27.003Z,99.99
2023-03-13T08:09:26.981Z,99.99
2023-03-13T08:10:26.971Z,99.99
2023-03-13T08:11:26.937Z,99.99
2023-03-13T08:12:26.922Z,99.99
2023-03-13T08:13:26.926Z,99.99
2023-03-13T08:14:26.957Z,99.99
2023-03-13T08:15:26.877Z,99.99
2023-03-13T08:16:26.990Z,99.99
2023-03-13T08:17:26.850Z,99.99
2023-03-13T08:18:26.905Z,99.91
2023-03-13T08:19:26.893Z,99.26
2023-03-13T08:20:26.910Z,99.15
2023-03-13T08:21:26.822Z,99.05
2023-03-13T08:22:26.787Z,99.36
2023-03-13T08:23:26.807Z,98.90
2023-03-13T08:24:26.817Z,98.70
2023-03-13T08:25:26.780Z,98.39
2023-03-13T08:26:26.781Z,98.49
2023-03-13T08:27:26.779Z,98.49
2023-03-13T08:28:26.733Z,98.60
2023-03-13T08:29:26.747Z,98.29
2023-03-13T08:30:26.885Z,98.39
2023-03-13T08:31:26.687Z,98.19
2023-03-13T08:32:26.846Z,98.39
2023-03-13T08:33:26.698Z,99.21
2023-03-13T08:34:26.674Z,99.52
2023-03-13T08:35:26.705Z,99.21
2023-03-13T08:36:26.700Z,99.01
2023-03-13T08:37:26.629Z,99.11
2023-03-13T08:38:26.620Z,99.01
2023-03-13T08:39:26.630Z,99.01
2023-03-13T08:40:26.599Z,99.11
2023-03-13T08:41:26.588Z,98.96
2023-03-13T08:42:26.564Z,99.16
2023-03-13T08:43:26.632Z,98.86
2023-03-13T08:44:26.728Z,99.16
2023-03-13T08:45:26.523Z,98.55
2023-03-13T08:46:26.612Z,98.75
2023-03-13T08:47:26.543Z,99.16
2023-03-13T08:48:26.489Z,99.06
2023-03-13T08:49:26.547Z,98.86
2023-03-13T08:50:26.489Z,98.75
2023-03-13T08:51:26.467Z,99.06
2023-03-13T08:52:26.489Z,99.37
2023-03-13T08:53:26.480Z,98.35
2023-03-13T08:54:26.451Z,98.30
2023-03-13T08:55:26.682Z,97.79
2023-03-13T08:56:27.433Z,97.69
2023-03-13T08:57:26.397Z,97.17
2023-03-13T08:58:26.412Z,96.26
2023-03-13T08:59:26.411Z,97.13
2023-03-13T09:00:26.382Z,97.17
2023-03-13T09:01:26.366Z,96.72
2023-03-13T09:02:26.404Z,96.87
2023-03-13T09:03:26.771Z,96.62
2023-03-13T09:04:26.328Z,96.21
2023-03-13T09:05:26.335Z,96.11
2023-03-13T09:06:26.315Z,95.90
2023-03-13T09:07:26.300Z,96.42
2023-03-13T09:08:26.295Z,95.80
2023-03-13T09:09:26.297Z,95.86
2023-03-13T09:10:26.284Z,95.56
2023-03-13T09:11:26.255Z,94.64
2023-03-13T09:12:31.120Z,95.00
2023-03-13T09:13:28.261Z,94.18
2023-03-13T09:14:26.280Z,94.14
2023-03-13T09:15:26.197Z,93.22
2023-03-13T09:16:26.196Z,92.91
2023-03-13T09:17:26.215Z,92.97
2023-03-13T09:18:26.257Z,92.97
2023-03-13T09:19:26.177Z,93.07
2023-03-13T09:20:26.162Z,92.57
2023-03-13T09:21:26.141Z,92.22
2023-03-13T09:22:26.118Z,91.61
2023-03-13T09:23:26.140Z,91.30
2023-03-13T09:24:26.117Z,91.50
2023-03-13T09:25:26.119Z,91.71
2023-03-13T09:26:26.111Z,91.56
2023-03-13T09:27:26.096Z,90.95
2023-03-13T09:28:26.047Z,91.26
2023-03-13T09:29:26.082Z,90.85
2023-03-13T09:30:26.036Z,89.79
2023-03-13T09:31:26.099Z,90.40
2023-03-13T09:32:26.039Z,90.40
2023-03-13T09:33:26.026Z,89.85
2023-03-13T09:34:26.002Z,90.01
2023-03-13T09:35:25.968Z,89.05
2023-03-13T09:36:26.054Z,88.54
2023-03-13T09:37:25.963Z,87.43
2023-03-13T09:38:25.946Z,88.44
2023-03-13T09:39:25.955Z,87.43
2023-03-13T09:40:25.959Z,88.69
2023-03-13T09:41:25.916Z,89.20
2023-03-13T09:42:25.922Z,88.63
2023-03-13T09:43:25.910Z,88.59
2023-03-13T09:44:25.907Z,88.65
2023-03-13T09:45:25.871Z,88.04
2023-03-13T09:46:25.893Z,87.84
2023-03-13T09:47:25.882Z,87.53
2023-03-13T09:48:25.851Z,86.82
2023-03-13T09:49:25.842Z,87.93
2023-03-13T09:50:25.814Z,87.53
2023-03-13T09:51:25.818Z,87.67
2023-03-13T09:52:26.798Z,88.59
2023-03-13T09:53:25.831Z,89.09
2023-03-13T09:54:25.777Z,88.89
2023-03-13T09:55:25.741Z,88.73
2023-03-13T09:56:25.787Z,90.46
2023-03-13T09:57:25.756Z,90.05
2023-03-13T09:58:25.730Z,89.95
2023-03-13T09:59:25.714Z,90.50
2023-03-13T10:00:25.746Z,90.05
2023-03-13T10:01:25.785Z,89.69
2023-03-13T10:02:25.691Z,90.50
2023-03-13T10:03:25.683Z,90.50
2023-03-13T10:04:25.687Z,90.40
2023-03-13T10:05:25.677Z,90.20
2023-03-13T10:06:25.648Z,90.25
2023-03-13T10:07:25.662Z,90.66
2023-03-13T10:08:25.603Z,89.89
2023-03-13T10:09:25.634Z,89.79
2023-03-13T10:10:25.599Z,90.24
2023-03-13T10:11:25.599Z,90.60
2023-03-13T10:12:25.580Z,90.95
2023-03-13T10:13:25.595Z,90.64
2023-03-13T10:14:25.555Z,91.26
2023-03-13T10:15:25.519Z,91.66
2023-03-13T10:16:25.586Z,91.26
2023-03-13T10:17:25.524Z,91.31
2023-03-13T10:18:26.519Z,91.22
2023-03-13T10:19:25.475Z,90.91
2023-03-13T10:20:25.479Z,90.70
2023-03-13T10:21:25.476Z,90.50
2023-03-13T10:22:25.463Z,90.70
2023-03-13T10:23:26.330Z,90.20
2023-03-13T10:24:25.454Z,90.20
2023-03-13T10:25:25.497Z,90.60
2023-03-13T10:26:25.419Z,90.81
2023-03-13T10:27:25.457Z,90.25
2023-03-13T10:28:25.452Z,90.20
2023-03-13T10:29:57.295Z,89.69
2023-03-13T10:30:25.377Z,90.09
2023-03-13T10:31:25.427Z,90.60
2023-03-13T10:32:25.408Z,90.70
2023-03-13T10:33:25.354Z,89.99
2023-03-13T10:34:25.339Z,90.09
2023-03-13T10:35:25.344Z,90.40
2023-03-13T10:36:25.324Z,90.70
2023-03-13T10:37:25.309Z,89.95
2023-03-13T10:38:25.773Z,89.85
2023-03-13T10:39:26.295Z,89.34
2023-03-13T10:40:25.273Z,90.05
2023-03-13T10:41:25.261Z,90.16
2023-03-13T10:42:25.240Z,90.16
2023-03-13T10:43:25.254Z,89.95
2023-03-13T10:44:25.263Z,89.85
2023-03-13T10:45:25.588Z,90.36
2023-03-13T10:46:26.222Z,89.95
2023-03-13T10:47:25.216Z,89.85
2023-03-13T10:48:25.204Z,90.05
2023-03-13T10:49:25.189Z,90.25
2023-03-13T10:50:25.165Z,89.64
2023-03-13T10:51:25.146Z,89.75
2023-03-13T10:52:25.147Z,90.25
2023-03-13T10:53:25.130Z,89.79
2023-03-13T10:54:25.132Z,90.60
2023-03-13T10:55:25.159Z,90.70
2023-03-13T10:56:25.111Z,91.22
2023-03-13T10:57:25.100Z,91.11
2023-03-13T10:58:25.077Z,91.26
2023-03-13T10:59:25.067Z,91.05
2023-03-13T11:00:25.041Z,90.60
2023-03-13T11:01:25.042Z,90.86
2023-03-13T11:02:25.028Z,90.91
2023-03-13T11:03:25.129Z,90.70
2023-03-13T11:04:24.987Z,90.70
2023-03-13T11:05:25.005Z,90.81
2023-03-13T11:06:24.994Z,90.40
2023-03-13T11:07:24.952Z,90.66
2023-03-13T11:08:25.065Z,90.36
2023-03-13T11:09:24.956Z,89.75
2023-03-13T11:10:24.947Z,90.52
2023-03-13T11:11:24.915Z,90.62
2023-03-13T11:12:24.905Z,89.81
2023-03-13T11:13:36.125Z,89.09
2023-03-13T11:14:26.890Z,89.40
2023-03-13T11:15:24.945Z,89.61
2023-03-13T11:16:24.954Z,89.50
2023-03-13T11:17:24.868Z,90.22
2023-03-13T11:18:24.848Z,89.20
2023-03-13T11:19:24.832Z,89.70
2023-03-13T11:20:24.873Z,89.95
2023-03-13T11:21:24.817Z,90.16
2023-03-13T11:22:24.815Z,89.85
2023-03-13T11:23:24.770Z,90.56
2023-03-13T11:24:24.835Z,90.52
2023-03-13T11:25:24.761Z,90.56
2023-03-13T11:26:24.808Z,89.64
2023-03-13T11:27:24.803Z,89.75
2023-03-13T11:28:24.745Z,90.46
2023-03-13T11:29:24.749Z,89.85
2023-03-13T11:30:24.720Z,90.56
2023-03-13T11:31:24.771Z,90.25
2023-03-13T11:32:24.735Z,90.22
2023-03-13T11:33:24.659Z,90.42
2023-03-13T11:34:24.654Z,89.09
2023-03-13T11:35:24.667Z,90.36
2023-03-13T11:36:24.654Z,90.22
2023-03-13T11:37:24.646Z,90.11
2023-03-13T11:38:24.632Z,90.22
2023-03-13T11:39:24.620Z,89.00
2023-03-13T11:40:24.590Z,89.91
2023-03-13T11:41:24.661Z,89.09
2023-03-13T11:42:24.587Z,88.48
2023-03-13T11:43:26.007Z,88.54
2023-03-13T11:44:25.552Z,88.44
2023-03-13T11:45:24.556Z,87.53
2023-03-13T11:46:24.720Z,87.53
2023-03-13T11:47:24.571Z,87.84
2023-03-13T11:48:24.515Z,88.13
2023-03-13T11:49:24.496Z,88.34
2023-03-13T11:50:24.489Z,88.44
2023-03-13T11:51:24.511Z,88.44
2023-03-13T11:52:24.485Z,87.43
2023-03-13T11:53:24.511Z,87.73
2023-03-13T11:54:24.513Z,88.44
2023-03-13T11:55:24.438Z,88.24
2023-03-13T11:56:24.445Z,88.34
2023-03-13T11:57:24.425Z,88.44
2023-03-13T11:58:24.452Z,88.44
2023-03-13T11:59:24.400Z,88.60
2023-03-13T12:00:24.420Z,88.60
2023-03-13T12:01:24.437Z,87.73
2023-03-13T12:02:24.469Z,87.63
2023-03-13T12:03:24.428Z,87.59
2023-03-13T12:04:24.338Z,88.20
2023-03-13T12:05:24.374Z,88.20
2023-03-13T12:06:28.334Z,87.38
2023-03-13T12:07:25.330Z,87.69
2023-03-13T12:08:24.370Z,87.49
2023-03-13T12:09:25.684Z,87.49
2023-03-13T12:10:24.261Z,87.38
2023-03-13T12:11:24.279Z,87.69
2023-03-13T12:12:24.300Z,87.49
2023-03-13T12:13:24.258Z,87.38
2023-03-13T12:14:24.248Z,87.59
2023-03-13T12:15:24.261Z,87.29
2023-03-13T12:16:24.264Z,87.49
2023-03-13T12:17:24.283Z,87.69
2023-03-13T12:18:24.226Z,88.40
2023-03-13T12:19:24.176Z,88.20
2023-03-13T12:20:24.197Z,87.99
2023-03-13T12:21:24.164Z,88.56
2023-03-13T12:22:24.151Z,87.99
2023-03-13T12:23:24.148Z,88.40
2023-03-13T12:24:24.135Z,88.26
2023-03-13T12:25:24.206Z,88.91
2023-03-13T12:26:24.149Z,89.11
2023-03-13T12:27:24.099Z,88.71
2023-03-13T12:28:24.392Z,89.92
2023-03-13T12:29:24.118Z,89.72
2023-03-13T12:30:24.088Z,89.72
2023-03-13T12:31:24.068Z,88.97
2023-03-13T12:32:24.118Z,89.78
2023-03-13T12:33:24.255Z,88.71
2023-03-13T12:34:25.052Z,88.97
2023-03-13T12:35:24.033Z,89.62
2023-03-13T12:36:24.078Z,89.11
2023-03-13T12:37:23.991Z,89.01
2023-03-13T12:38:23.976Z,89.42
2023-03-13T12:39:23.984Z,90.03
2023-03-13T12:40:23.957Z,90.13
2023-03-13T12:41:23.964Z,89.83
2023-03-13T12:42:23.973Z,90.33
2023-03-13T12:43:23.926Z,90.48
2023-03-13T12:44:23.938Z,90.33
2023-03-13T12:45:24.005Z,90.48
2023-03-13T12:46:23.951Z,91.09
2023-03-13T12:47:25.381Z,90.13
2023-03-13T12:48:23.945Z,90.94
2023-03-13T12:49:23.874Z,89.68
2023-03-13T12:50:23.869Z,90.09
2023-03-13T12:51:23.844Z,89.88
2023-03-13T12:52:23.835Z,89.28